createdAt,value
2019-04-06T00:02:21.706Z,68.52
2019-04-06T00:04:50.775Z,69.80
2019-04-06T00:07:19.477Z,71.87
2019-04-06T00:09:48.185Z,64.60
2019-04-06T00:12:16.913Z,69.10
2019-04-06T00:14:45.695Z,61.63
2019-04-06T00:17:14.460Z,71.55
2019-04-06T00:19:43.151Z,65.95
2019-04-06T00:22:11.872Z,63.83
2019-04-06T00:24:41.086Z,64.92
2019-04-06T00:27:10.098Z,70.80
2019-04-06T00:29:38.826Z,71.53
2019-04-06T00:32:18.039Z,70.83
2019-04-06T00:34:47.082Z,78.20
2019-04-06T00:37:15.776Z,78.52
2019-04-06T00:39:44.492Z,77.50
2019-04-06T00:42:13.204Z,80.03
2019-04-06T00:44:41.942Z,73.40
2019-04-06T00:47:10.658Z,72.03
2019-04-06T00:49:39.424Z,73.67
2019-04-06T00:52:08.160Z,76.55
2019-04-06T00:54:36.879Z,74.55
2019-04-06T00:57:05.624Z,69.35
2019-04-06T00:59:34.350Z,80.62
2019-04-06T01:02:03.160Z,71.90
2019-04-06T01:04:31.602Z,73.50
2019-04-06T01:07:00.402Z,76.22
2019-04-06T01:09:29.181Z,78.67
2019-04-06T01:11:58.055Z,71.02
2019-04-06T01:14:26.550Z,74.42
2019-04-06T01:16:55.264Z,70.35
2019-04-06T01:19:23.986Z,71.72
2019-04-06T01:21:52.740Z,75.67
2019-04-06T01:24:21.444Z,79.12
2019-04-06T01:26:50.169Z,71.80
2019-04-06T01:29:18.899Z,71.53
2019-04-06T01:31:47.644Z,76.65
2019-04-06T01:34:16.354Z,70.10
2019-04-06T01:36:45.078Z,74.07
2019-04-06T01:39:13.844Z,73.60
2019-04-06T01:41:42.610Z,66.00
2019-04-06T01:44:11.286Z,71.37
2019-04-06T01:46:40.026Z,69.25
2019-04-06T01:49:08.743Z,75.05
2019-04-06T01:51:37.500Z,72.82
2019-04-06T01:54:06.315Z,72.30
2019-04-06T01:56:34.767Z,72.27
2019-04-06T01:59:03.516Z,70.20
2019-04-06T02:01:36.371Z,82.40
2019-04-06T02:04:05.421Z,74.32
2019-04-06T02:06:34.169Z,76.37
2019-04-06T02:09:03.444Z,68.52
2019-04-06T02:11:32.471Z,71.82
2019-04-06T02:14:01.179Z,72.70
2019-04-06T02:16:29.904Z,79.77
2019-04-06T02:18:58.717Z,71.25
2019-04-06T02:21:27.401Z,69.35
2019-04-06T02:23:56.145Z,69.22
2019-04-06T02:26:30.939Z,73.02
2019-04-06T02:28:55.525Z,69.25
2019-04-06T02:31:35.010Z,75.65
2019-04-06T02:34:05.733Z,77.05
2019-04-06T02:36:48.418Z,72.65
2019-04-06T02:39:27.872Z,70.90
2019-04-06T02:41:58.721Z,75.65
2019-04-06T02:44:27.713Z,70.22
2019-04-06T02:46:56.528Z,76.60
2019-04-06T02:49:25.297Z,70.15
2019-04-06T02:51:53.982Z,71.70
2019-04-06T02:54:22.726Z,69.55
2019-04-06T02:56:51.417Z,69.75
2019-04-06T02:59:20.132Z,72.05
2019-04-06T03:01:48.906Z,67.15
2019-04-06T03:04:17.641Z,68.65
2019-04-06T03:06:46.385Z,64.27
2019-04-06T03:09:15.220Z,70.85
2019-04-06T03:11:43.994Z,75.57
2019-04-06T03:14:12.725Z,67.22
2019-04-06T03:16:41.588Z,62.48
2019-04-06T03:19:10.303Z,74.87
2019-04-06T03:21:39.012Z,70.75
2019-04-06T03:24:07.724Z,68.57
2019-04-06T03:26:36.504Z,64.50
2019-04-06T03:29:05.172Z,71.67
2019-04-06T03:31:34.015Z,71.77
2019-04-06T03:36:30.929Z,72.92
2019-04-06T03:38:59.687Z,72.62
2019-04-06T03:41:28.664Z,62.48
2019-04-06T03:46:24.967Z,70.97
2019-04-06T03:48:53.674Z,71.82
2019-04-06T03:51:22.392Z,74.00
2019-04-06T03:53:51.085Z,68.80
2019-04-06T03:56:19.893Z,70.85
2019-04-06T03:58:48.572Z,72.95
2019-04-06T04:01:17.268Z,66.97
2019-04-06T04:03:45.959Z,75.40
2019-04-06T04:06:14.585Z,75.28
2019-04-06T04:08:43.260Z,75.47
2019-04-06T04:11:11.977Z,70.87
2019-04-06T04:13:40.859Z,73.37
2019-04-06T04:16:09.273Z,73.72
2019-04-06T04:18:37.984Z,74.72
2019-04-06T04:21:06.670Z,72.55
2019-04-06T04:23:35.387Z,76.80
2019-04-06T04:26:04.068Z,73.15
2019-04-06T04:28:32.922Z,82.20
2019-04-06T04:31:01.785Z,74.85
2019-04-06T04:33:30.154Z,75.40
2019-04-06T04:35:58.982Z,82.37
2019-04-06T04:38:27.657Z,80.22
2019-04-06T04:40:56.331Z,79.58
2019-04-06T04:43:24.985Z,77.35
2019-04-06T04:45:53.663Z,83.45
2019-04-06T04:48:22.308Z,87.78
2019-04-06T04:50:51.026Z,81.37
2019-04-06T04:53:19.692Z,81.22
2019-04-06T04:55:48.829Z,88.40
2019-04-06T05:00:45.466Z,81.55
2019-04-06T05:03:14.120Z,93.95
2019-04-06T05:05:42.847Z,84.60
2019-04-06T05:08:11.543Z,83.58
2019-04-06T05:10:40.227Z,80.95
2019-04-06T05:13:08.936Z,88.37
2019-04-06T05:15:46.841Z,81.28
2019-04-06T05:18:15.905Z,86.70
2019-04-06T05:20:44.457Z,83.42
2019-04-06T05:23:13.089Z,83.05
2019-04-06T05:25:41.722Z,89.05
2019-04-06T05:28:10.397Z,84.77
2019-04-06T05:30:39.018Z,83.85
2019-04-06T05:33:07.700Z,89.17
2019-04-06T05:35:36.313Z,96.85
2019-04-06T05:38:04.941Z,94.00
2019-04-06T05:40:33.629Z,98.00
2019-04-06T05:43:02.325Z,95.30
2019-04-06T05:45:31.032Z,99.87
2019-04-06T05:47:59.707Z,104.78
2019-04-06T05:50:28.580Z,97.53
2019-04-06T05:52:56.922Z,98.97
2019-04-06T05:55:25.550Z,99.70
2019-04-06T05:58:03.537Z,105.40
2019-04-06T06:00:25.140Z,113.40
2019-04-06T06:02:53.501Z,116.85
2019-04-06T06:05:22.130Z,108.07
2019-04-06T06:07:50.755Z,111.57
2019-04-06T06:10:19.466Z,106.10
2019-04-06T06:12:48.081Z,98.78
2019-04-06T06:15:16.777Z,114.52
2019-04-06T06:17:45.493Z,109.10
2019-04-06T06:20:14.191Z,105.15
2019-04-06T06:22:42.910Z,109.52
2019-04-06T06:25:11.588Z,105.43
2019-04-06T06:27:40.352Z,115.08
2019-04-06T06:30:09.014Z,106.60
2019-04-06T06:32:37.693Z,109.15
2019-04-06T06:35:06.488Z,114.15
2019-04-06T06:37:35.109Z,114.47
2019-04-06T06:40:06.045Z,113.60
2019-04-06T06:42:34.980Z,111.47
2019-04-06T06:45:04.365Z,112.88
2019-04-06T06:47:33.397Z,102.17
2019-04-06T06:50:02.160Z,104.10
2019-04-06T06:52:30.846Z,105.92
2019-04-06T06:54:59.557Z,107.92
2019-04-06T06:57:28.163Z,107.03
2019-04-06T06:59:56.878Z,102.17
2019-04-06T07:02:25.505Z,100.80
2019-04-06T07:04:54.129Z,102.22
2019-04-06T07:07:22.902Z,95.17
2019-04-06T07:09:51.529Z,94.50
2019-04-06T07:12:20.265Z,94.42
2019-04-06T07:14:48.967Z,95.12
2019-04-06T07:17:17.605Z,90.92
2019-04-06T07:19:46.329Z,85.47
2019-04-06T07:22:15.019Z,90.42
2019-04-06T07:24:43.803Z,87.65
2019-04-06T07:27:12.266Z,91.20
2019-04-06T07:29:41.175Z,86.15
2019-04-06T07:32:09.592Z,88.12
2019-04-06T07:34:38.267Z,88.97
2019-04-06T07:37:06.985Z,85.05
2019-04-06T07:39:35.647Z,86.15
2019-04-06T07:42:04.299Z,91.63
2019-04-06T07:44:33.020Z,86.40
2019-04-06T07:47:01.707Z,82.78
2019-04-06T07:49:30.417Z,85.40
2019-04-06T07:51:59.108Z,80.55
2019-04-06T07:54:27.805Z,84.13
2019-04-06T07:56:56.592Z,82.35
2019-04-06T07:59:25.212Z,80.35
2019-04-06T08:01:53.912Z,83.70
2019-04-06T08:04:22.528Z,84.28
2019-04-06T08:06:51.413Z,77.05
2019-04-06T08:09:19.922Z,81.53
2019-04-06T08:11:48.537Z,79.77
2019-04-06T08:14:17.261Z,76.77
2019-04-06T08:16:45.957Z,75.22
2019-04-06T08:19:14.660Z,79.67
2019-04-06T08:21:43.364Z,72.72
2019-04-06T08:24:12.061Z,77.10
2019-04-06T08:26:40.765Z,78.40
2019-04-06T08:29:09.416Z,73.37
2019-04-06T08:31:38.077Z,72.30
2019-04-06T08:34:06.787Z,72.00
2019-04-06T08:36:35.672Z,75.15
2019-04-06T08:41:33.395Z,72.40
2019-04-06T08:44:02.200Z,67.95
2019-04-06T08:46:30.680Z,64.03
2019-04-06T08:48:59.377Z,65.22
2019-04-06T08:51:28.097Z,67.95
2019-04-06T08:53:56.826Z,65.70
2019-04-06T08:56:25.508Z,66.05
2019-04-06T08:58:54.143Z,64.42
2019-04-06T09:01:22.755Z,63.13
2019-04-06T09:03:51.572Z,66.15
2019-04-06T09:08:48.429Z,60.52
2019-04-06T09:11:17.075Z,57.23
2019-04-06T09:13:45.691Z,62.98
2019-04-06T09:16:14.365Z,58.98
2019-04-06T09:18:42.995Z,58.35
2019-04-06T09:21:11.639Z,60.40
2019-04-06T09:23:40.298Z,60.98
2019-04-06T09:26:08.939Z,56.73
2019-04-06T09:28:37.627Z,55.40
2019-04-06T09:31:06.418Z,56.02
2019-04-06T09:33:34.822Z,57.20
2019-04-06T09:36:03.544Z,58.05
2019-04-06T09:38:32.012Z,60.03
2019-04-06T09:41:00.783Z,55.33
2019-04-06T09:46:10.741Z,56.68
2019-04-06T09:48:44.055Z,54.80
2019-04-06T09:51:14.385Z,53.70
2019-04-06T09:53:44.726Z,51.80
2019-04-06T09:56:24.107Z,54.83
2019-04-06T09:59:03.490Z,54.43
2019-04-06T10:01:42.799Z,54.73
2019-04-06T10:04:15.787Z,51.17
2019-04-06T10:07:02.342Z,53.13
2019-04-06T10:09:35.869Z,53.93
2019-04-06T10:12:06.165Z,55.63
2019-04-06T10:14:52.571Z,56.17
2019-04-06T10:17:25.905Z,52.67
2019-04-06T10:19:56.273Z,53.20
2019-04-06T10:22:29.506Z,52.77
2019-04-06T10:25:02.542Z,48.57
2019-04-06T10:27:44.706Z,52.17
2019-04-06T10:30:14.998Z,50.60
2019-04-06T10:32:50.951Z,49.83
2019-04-06T10:35:21.272Z,48.27
2019-04-06T10:38:07.661Z,48.27
2019-04-06T10:40:37.952Z,46.67
2019-04-06T10:43:14.429Z,49.40
2019-04-06T10:45:44.688Z,45.90
2019-04-06T10:48:14.938Z,44.87
2019-04-06T10:50:48.168Z,45.00
2019-04-06T10:53:33.585Z,45.63
2019-04-06T10:56:10.157Z,45.37
2019-04-06T10:58:51.994Z,48.53
2019-04-06T11:01:38.458Z,44.97
2019-04-06T11:04:17.524Z,43.20
2019-04-06T11:06:56.980Z,42.33
2019-04-06T11:09:43.358Z,39.47
2019-04-06T11:12:29.892Z,36.00
2019-04-06T11:15:00.231Z,34.80
2019-04-06T11:17:47.047Z,36.47
2019-04-06T11:20:23.147Z,35.13
2019-04-06T11:22:59.141Z,36.63
2019-04-06T11:25:29.390Z,36.40
2019-04-06T11:28:03.792Z,34.77
2019-04-06T11:30:50.317Z,34.33
2019-04-06T11:33:36.665Z,34.57
2019-04-06T11:36:07.000Z,34.57
2019-04-06T11:38:40.102Z,35.70
2019-04-06T11:41:10.627Z,35.23
2019-04-06T11:43:47.165Z,32.03
2019-04-06T11:46:23.211Z,33.43
2019-04-06T11:48:53.511Z,33.87
2019-04-06T11:51:32.711Z,33.80
2019-04-06T11:54:19.063Z,34.67
2019-04-06T11:56:52.457Z,33.23
2019-04-06T11:59:22.890Z,32.83
2019-04-06T12:02:05.335Z,31.53
2019-04-06T12:04:35.594Z,32.43
2019-04-06T12:07:14.875Z,32.73
2019-04-06T12:09:48.109Z,29.50
2019-04-06T12:12:27.144Z,31.53
2019-04-06T12:15:00.471Z,33.67
2019-04-06T12:17:46.926Z,32.57
2019-04-06T12:20:20.279Z,34.33
2019-04-06T12:22:51.295Z,34.43
2019-04-06T12:25:24.670Z,30.13
2019-04-06T12:27:54.951Z,30.73
2019-04-06T12:30:36.956Z,30.47
2019-04-06T12:33:13.255Z,30.83
2019-04-06T12:35:43.593Z,36.83
2019-04-06T12:38:16.977Z,36.90
2019-04-06T12:40:49.750Z,37.17
2019-04-06T12:43:36.375Z,37.43
2019-04-06T12:46:18.445Z,42.47
2019-04-06T12:48:49.638Z,37.70
2019-04-06T12:51:20.742Z,38.57
2019-04-06T12:53:51.073Z,38.10
2019-04-06T12:56:27.141Z,35.90
2019-04-06T12:59:15.376Z,35.07
2019-04-06T13:01:48.607Z,31.55
2019-04-06T13:04:22.162Z,33.40
2019-04-06T13:06:55.751Z,31.30
2019-04-06T13:09:42.142Z,32.33
2019-04-06T13:12:18.310Z,27.83
2019-04-06T13:15:00.358Z,27.57
2019-04-06T13:17:30.733Z,25.73
2019-04-06T13:20:09.995Z,26.17
2019-04-06T13:22:49.317Z,31.67
2019-04-06T13:25:19.672Z,27.37
2019-04-06T13:27:49.934Z,26.13
2019-04-06T13:30:23.361Z,23.43
2019-04-06T13:32:53.682Z,22.00
2019-04-06T13:35:41.527Z,24.93
2019-04-06T13:38:11.850Z,23.77
2019-04-06T13:40:44.827Z,22.80
2019-04-06T13:43:21.133Z,22.97
2019-04-06T13:45:51.428Z,22.73
2019-04-06T13:48:37.873Z,21.07
2019-04-06T13:51:20.658Z,21.67
2019-04-06T13:53:52.310Z,21.63
2019-04-06T13:56:28.677Z,23.03
2019-04-06T13:58:58.930Z,22.33
2019-04-06T14:01:29.366Z,20.23
2019-04-06T14:04:00.001Z,20.87
2019-04-06T14:06:33.062Z,23.57
2019-04-06T14:09:03.338Z,24.60
2019-04-06T14:11:36.613Z,21.87
2019-04-06T14:14:12.685Z,20.80
2019-04-06T14:16:52.099Z,25.90
2019-04-06T14:19:37.224Z,19.67
2019-04-06T14:22:10.201Z,19.87
2019-04-06T14:24:40.591Z,19.57
2019-04-06T14:27:26.905Z,19.03
2019-04-06T14:30:08.964Z,18.47
2019-04-06T14:32:48.218Z,18.27
2019-04-06T14:35:30.468Z,17.47
2019-04-06T14:38:16.975Z,16.83
2019-04-06T14:40:50.283Z,16.67
2019-04-06T14:43:32.485Z,16.10
2019-04-06T14:46:14.798Z,27.37
2019-04-06T14:48:51.157Z,19.40
2019-04-06T14:51:21.448Z,15.10
2019-04-06T14:54:00.840Z,13.67
2019-04-06T14:56:47.284Z,14.80
2019-04-06T14:59:23.490Z,14.43
2019-04-06T15:02:06.074Z,15.67
2019-04-06T15:04:42.502Z,17.10
2019-04-06T15:07:13.189Z,16.80
2019-04-06T15:09:55.691Z,18.50
2019-04-06T15:12:41.082Z,21.97
2019-04-06T15:15:17.384Z,22.60
2019-04-06T15:17:54.902Z,21.87
2019-04-06T15:23:15.115Z,30.17
2019-04-06T15:25:53.914Z,28.70
2019-04-06T15:28:33.195Z,26.13
2019-04-06T15:31:20.303Z,26.23
2019-04-06T15:34:02.032Z,27.67
2019-04-06T15:36:32.381Z,26.47
2019-04-06T15:39:17.818Z,25.73
2019-04-06T15:42:04.103Z,27.43
2019-04-06T15:44:34.430Z,27.50
2019-04-06T15:47:20.772Z,25.13
2019-04-06T15:49:51.202Z,26.47
2019-04-06T15:52:37.544Z,25.23
2019-04-06T15:55:10.917Z,26.80
2019-04-06T15:57:44.217Z,34.37
2019-04-06T16:00:20.220Z,29.43
2019-04-06T16:02:56.693Z,28.50
2019-04-06T16:05:27.349Z,29.23
2019-04-06T16:08:00.728Z,29.33
2019-04-06T16:10:31.007Z,29.47
2019-04-06T16:13:01.432Z,28.47
2019-04-06T16:15:34.724Z,27.93
2019-04-06T16:18:14.327Z,27.87
2019-04-06T16:20:47.308Z,27.93
2019-04-06T16:23:33.841Z,29.50
2019-04-06T16:26:09.917Z,30.83
2019-04-06T16:28:40.306Z,28.80
2019-04-06T16:31:10.571Z,28.77
2019-04-06T16:33:46.987Z,30.30
2019-04-06T16:36:17.399Z,28.50
2019-04-06T16:39:03.788Z,30.80
2019-04-06T16:41:37.011Z,30.50
2019-04-06T16:44:07.338Z,32.57
2019-04-06T16:46:40.314Z,29.63
2019-04-06T16:49:26.322Z,31.43
2019-04-06T16:51:59.753Z,31.67
2019-04-06T16:54:42.388Z,33.23
2019-04-06T16:57:12.692Z,32.73
2019-04-06T16:59:59.317Z,31.93
2019-04-06T17:02:38.373Z,32.80
2019-04-06T17:05:14.717Z,34.53
2019-04-06T17:08:10.712Z,33.33
2019-04-06T17:10:37.878Z,30.90
2019-04-06T17:13:08.199Z,32.83
2019-04-06T17:15:41.358Z,31.30
2019-04-06T17:18:11.857Z,32.43
2019-04-06T17:20:45.251Z,32.13
2019-04-06T17:23:24.493Z,31.53
2019-04-06T17:25:55.045Z,33.53
2019-04-06T17:28:43.504Z,32.17
2019-04-06T17:33:51.632Z,33.55
2019-04-06T17:36:31.171Z,35.33
2019-04-06T17:39:04.828Z,35.33
2019-04-06T17:41:40.932Z,34.27
2019-04-06T17:44:20.889Z,34.70
2019-04-06T17:46:51.647Z,35.40
2019-04-06T17:49:24.971Z,34.47
2019-04-06T17:52:07.483Z,35.10
2019-04-06T17:54:46.812Z,44.43
2019-04-06T17:57:17.428Z,34.77
2019-04-06T17:59:54.215Z,36.63
2019-04-06T18:02:24.630Z,36.27
2019-04-06T18:04:55.338Z,35.37
2019-04-06T18:07:41.744Z,34.80
2019-04-06T18:10:28.337Z,35.30
2019-04-06T18:13:01.874Z,35.40
2019-04-06T18:15:31.431Z,35.73
2019-04-06T18:18:00.105Z,37.73
2019-04-06T18:20:28.782Z,41.95
2019-04-06T18:25:25.072Z,37.53
2019-04-06T18:30:21.476Z,36.28
2019-04-06T18:32:59.723Z,38.93
2019-04-06T18:35:22.321Z,36.47
2019-04-06T18:40:35.275Z,38.40
2019-04-06T18:43:04.171Z,37.98
2019-04-06T18:45:32.955Z,36.87
2019-04-06T18:48:01.292Z,37.15
2019-04-06T18:50:35.914Z,37.98
2019-04-06T18:53:00.037Z,38.40
2019-04-06T18:55:28.966Z,39.53
2019-04-06T19:00:27.433Z,38.38
2019-04-06T19:02:56.081Z,39.50
2019-04-06T19:05:24.472Z,39.35
2019-04-06T19:07:53.180Z,37.88
2019-04-06T19:10:22.058Z,39.73
2019-04-06T19:15:18.487Z,40.15
2019-04-06T19:17:47.398Z,43.10
2019-04-06T19:20:16.143Z,42.00
2019-04-06T19:22:44.565Z,40.88
2019-04-06T19:25:13.248Z,42.90
2019-04-06T19:27:41.933Z,39.80
2019-04-06T19:30:11.047Z,42.70
2019-04-06T19:32:39.675Z,41.37
2019-04-06T19:35:08.877Z,40.88
2019-04-06T19:37:37.561Z,39.60
2019-04-06T19:40:06.255Z,42.17
2019-04-06T19:42:34.648Z,41.28
2019-04-06T19:45:04.635Z,42.55
2019-04-06T19:47:33.258Z,40.87
2019-04-06T19:50:02.001Z,44.15
2019-04-06T19:52:31.150Z,43.40
2019-04-06T19:54:59.858Z,42.17
2019-04-06T19:57:28.811Z,44.93
2019-04-06T19:59:57.526Z,42.10
2019-04-06T20:02:26.243Z,41.13
2019-04-06T20:04:54.878Z,42.15
2019-04-06T20:07:23.280Z,41.65
2019-04-06T20:09:52.166Z,44.03
2019-04-06T20:12:21.220Z,43.70
2019-04-06T20:14:49.933Z,43.08
2019-04-06T20:17:18.669Z,43.50
2019-04-06T20:19:47.361Z,45.85
2019-04-06T20:24:43.425Z,44.67
2019-04-06T20:27:12.212Z,45.67
2019-04-06T20:29:40.787Z,45.80
2019-04-06T20:32:09.169Z,45.60
2019-04-06T20:34:37.867Z,45.00
2019-04-06T20:37:06.481Z,48.55
2019-04-06T20:39:35.600Z,47.08
2019-04-06T20:42:04.299Z,50.47
2019-04-06T20:44:32.900Z,50.35
2019-04-06T20:47:01.644Z,46.53
2019-04-06T20:49:30.091Z,49.13
2019-04-06T20:51:59.604Z,48.28
2019-04-06T20:54:28.269Z,51.50
2019-04-06T20:56:58.226Z,49.58
2019-04-06T20:59:27.625Z,50.23
2019-04-06T21:01:56.336Z,50.45
2019-04-06T21:04:25.023Z,48.87
2019-04-06T21:06:53.682Z,49.38
2019-04-06T21:09:22.423Z,52.13
2019-04-06T21:11:51.115Z,49.73
2019-04-06T21:16:47.970Z,50.70
2019-04-06T21:19:16.588Z,50.75
2019-04-06T21:21:45.218Z,49.42
2019-04-06T21:24:13.896Z,51.53
2019-04-06T21:26:42.547Z,50.40
2019-04-06T21:29:11.383Z,50.45
2019-04-06T21:34:11.977Z,48.17
2019-04-06T21:36:39.018Z,53.45
2019-04-06T21:39:08.100Z,51.30
2019-04-06T21:41:37.419Z,52.78
2019-04-06T21:44:06.585Z,50.38
2019-04-06T21:46:35.003Z,52.33
2019-04-06T21:49:03.673Z,50.12
2019-04-06T21:51:32.471Z,51.42
2019-04-06T21:56:29.718Z,52.23
2019-04-06T21:58:58.344Z,50.12
2019-04-06T22:01:27.948Z,52.83
2019-04-06T22:03:57.622Z,52.43
2019-04-06T22:06:26.644Z,53.05
2019-04-06T22:08:55.336Z,53.95
2019-04-06T22:11:23.940Z,50.05
2019-04-06T22:13:52.554Z,50.08
2019-04-06T22:16:21.231Z,52.70
2019-04-06T22:18:49.936Z,49.63
2019-04-06T22:21:18.943Z,53.68
2019-04-06T22:23:47.605Z,51.43
2019-04-06T22:26:16.289Z,52.30
2019-04-06T22:28:44.908Z,51.37
2019-04-06T22:31:13.543Z,55.38
2019-04-06T22:33:42.213Z,53.85
2019-04-06T22:36:10.806Z,53.55
2019-04-06T22:38:40.010Z,52.48
2019-04-06T22:41:09.174Z,52.53
2019-04-06T22:46:05.779Z,53.05
2019-04-06T22:48:34.698Z,52.78
2019-04-06T22:53:30.696Z,53.67
2019-04-06T22:55:59.342Z,56.53
2019-04-06T22:58:27.987Z,59.45
2019-04-06T23:01:01.403Z,59.30
2019-04-06T23:03:48.359Z,57.10
2019-04-06T23:06:36.804Z,57.45
2019-04-06T23:09:07.646Z,55.35
2019-04-06T23:11:36.682Z,56.68
2019-04-06T23:14:05.379Z,57.15
2019-04-06T23:16:34.190Z,56.13
2019-04-06T23:19:02.588Z,57.33
2019-04-06T23:21:31.658Z,60.48
2019-04-06T23:24:03.058Z,58.90
2019-04-06T23:26:30.969Z,59.85
2019-04-06T23:28:59.682Z,57.20
2019-04-06T23:31:28.085Z,58.25
2019-04-06T23:33:57.274Z,58.28
2019-04-06T23:36:26.258Z,58.75
2019-04-06T23:38:54.846Z,59.20
2019-04-06T23:41:23.435Z,60.30
2019-04-06T23:43:52.063Z,64.75
2019-04-06T23:46:20.695Z,58.00
2019-04-06T23:48:49.854Z,62.00
2019-04-06T23:51:18.852Z,59.67
2019-04-06T23:53:48.049Z,57.43
2019-04-06T23:56:17.096Z,62.58
2019-04-06T23:58:45.750Z,59.42
